Time;durP1;ratioP1;P1;durP2;ratioP2;P2;SDS_P1;SDS_P2;PMS_P1;PMS_P2;Temp;Humidity;BMP_temperature;BMP_pressure;BME280_temperature;BME280_humidity;BME280_pressure;Samples;Min_cycle;Max_cycle;Signal;HPM_P1;HPM_P2
2021/07/13 00:00:19;;;;;;;13.70;12.50;;;;;;;25.34;59.46;100350.33;1828893;77;22155;-60
2021/07/13 00:02:53;;;;;;;13.15;11.90;;;;;;;25.30;59.57;100348.34;1818705;77;22235;-60
2021/07/13 00:05:26;;;;;;;13.60;12.30;;;;;;;25.27;59.54;100350.41;1834503;77;22175;-61
2021/07/13 00:07:59;;;;;;;14.13;12.73;;;;;;;25.23;59.63;100357.38;1824877;77;22210;-58
2021/07/13 00:10:37;;;;;;;13.53;12.13;;;;;;;25.20;59.76;100356.72;1834463;77;22172;-61
2021/07/13 00:13:10;;;;;;;13.85;12.55;;;;;;;25.12;59.92;100351.92;1790683;77;22179;-58
2021/07/13 00:15:44;;;;;;;14.43;12.90;;;;;;;25.09;60.00;100348.11;1834371;77;22164;-58
2021/07/13 00:18:17;;;;;;;14.25;12.75;;;;;;;25.05;60.16;100350.18;1816080;77;22209;-58
2021/07/13 00:21:09;;;;;;;15.25;12.65;;;;;;;24.97;60.29;100350.34;1852726;77;22171;-61
2021/07/13 00:23:42;;;;;;;13.55;11.97;;;;;;;24.95;60.28;100349.97;1813472;77;22175;-61
2021/07/13 00:26:36;;;;;;;14.13;12.70;;;;;;;24.91;60.41;100351.20;1813317;77;22115;-57
2021/07/13 00:29:09;;;;;;;13.50;12.20;;;;;;;24.89;60.50;100355.84;1809831;77;22202;-61
2021/07/13 00:32:01;;;;;;;14.33;13.03;;;;;;;24.88;60.45;100354.11;1827151;77;22170;-57
2021/07/13 00:34:35;;;;;;;14.15;12.80;;;;;;;24.87;60.39;100348.83;1803905;77;22190;-57
2021/07/13 00:37:27;;;;;;;14.53;13.08;;;;;;;24.84;60.43;100345.02;1818274;77;22171;-60
2021/07/13 00:40:00;;;;;;;13.48;12.23;;;;;;;24.81;60.35;100355.53;1825262;77;22178;-57
2021/07/13 00:42:34;;;;;;;14.35;13.05;;;;;;;24.77;60.43;100361.60;1823862;77;22155;-61
2021/07/13 00:45:08;;;;;;;14.15;12.88;;;;;;;24.75;60.51;100353.28;1823261;77;22144;-57
2021/07/13 00:48:00;;;;;;;14.05;12.55;;;;;;;24.70;60.73;100347.34;1842388;77;22225;-61
2021/07/13 00:50:33;;;;;;;14.55;13.25;;;;;;;24.63;60.77;100343.73;1833614;77;22150;-60
2021/07/13 00:53:06;;;;;;;14.10;12.80;;;;;;;24.56;60.89;100337.58;1823945;77;22206;-61
2021/07/13 00:55:39;;;;;;;13.83;12.55;;;;;;;24.52;61.07;100340.11;1852108;77;22166;-58
2021/07/13 00:58:32;;;;;;;14.58;13.10;;;;;;;24.47;61.14;100332.38;1824832;77;22157;-58
2021/07/13 01:01:07;;;;;;;14.23;12.73;;;;;;;24.39;61.20;100332.91;1849971;77;22158;-60
2021/07/13 01:04:01;;;;;;;14.83;13.13;;;;;;;24.35;61.31;100319.30;1811234;77;22221;-58
2021/07/13 01:07:10;;;;;;;13.45;12.05;;;;;;;24.25;61.53;100308.85;1852787;77;22178;-61
2021/07/13 01:10:04;;;;;;;13.72;12.33;;;;;;;24.20;61.65;100319.45;1819435;77;22199;-60
2021/07/13 01:13:01;;;;;;;13.62;12.35;;;;;;;24.17;61.68;100325.51;1823504;77;22543;-61
2021/07/13 01:15:51;;;;;;;16.80;11.95;;;;;;;24.16;61.61;100327.81;1834458;77;22595;-58
2021/07/13 01:18:28;;;;;;;14.78;12.47;;;;;;;24.13;61.72;100334.75;1806842;77;22214;-58
2021/07/13 01:21:44;;;;;;;16.25;14.75;;;;;;;24.08;61.74;100326.15;1815833;77;27999;-61
2021/07/13 01:25:03;;;;;;;14.98;13.60;;;;;;;24.06;61.76;100326.27;1808044;77;22230;-57
2021/07/13 01:28:03;;;;;;;13.75;12.43;;;;;;;23.98;61.84;100320.09;1821745;77;22147;-60
2021/07/13 01:30:52;;;;;;;13.35;12.05;;;;;;;23.93;62.00;100317.30;1838447;77;22152;-61
2021/07/13 01:33:50;;;;;;;14.80;12.45;;;;;;;23.84;62.16;100330.44;1833302;77;22170;-60
2021/07/13 01:36:55;;;;;;;13.83;12.40;;;;;;;23.76;62.28;100320.19;1826531;77;22548;-57
2021/07/13 01:39:51;;;;;;;14.73;13.22;;;;;;;23.71;62.54;100332.23;1829565;77;22555;-58
2021/07/13 01:42:44;;;;;;;14.10;12.80;;;;;;;23.72;62.52;100324.55;1829076;77;22206;-58
2021/07/13 01:45:39;;;;;;;14.65;12.60;;;;;;;23.72;62.45;100320.02;1827675;77;22174;-60
2021/07/13 01:48:12;;;;;;;14.15;12.50;;;;;;;23.69;62.55;100314.86;1812979;77;20264;-61
2021/07/13 01:50:49;;;;;;;13.58;12.37;;;;;;;23.66;62.70;100333.02;1834481;77;22176;-58
2021/07/13 01:53:39;;;;;;;15.00;13.48;;;;;;;23.64;62.63;100330.43;1815879;77;22171;-61
2021/07/13 01:56:12;;;;;;;13.90;12.63;;;;;;;23.63;62.66;100328.70;1834504;77;22175;-58
2021/07/13 01:58:45;;;;;;;14.38;12.88;;;;;;;23.62;62.73;100331.05;1801795;77;22615;-61
2021/07/13 02:01:21;;;;;;;14.95;13.45;;;;;;;23.60;62.76;100334.31;1852820;77;22163;-57
2021/07/13 02:04:14;;;;;;;15.00;13.55;;;;;;;23.54;62.92;100339.60;1796456;77;22190;-61
2021/07/13 02:06:47;;;;;;;16.93;13.08;;;;;;;23.54;62.89;100336.91;1821278;77;22586;-58
2021/07/13 02:09:20;;;;;;;15.20;13.58;;;;;;;23.53;62.93;100341.91;1807264;77;22214;-58
2021/07/13 02:12:13;;;;;;;16.35;14.75;;;;;;;23.52;62.92;100367.55;1820672;77;22280;-59
2021/07/13 02:14:46;;;;;;;20.43;14.63;;;;;;;23.55;62.82;100373.56;1910172;74;22121;-58
2021/07/13 02:17:38;;;;;;;18.95;13.10;;;;;;;23.68;62.51;100361.50;1811996;77;22186;-60
2021/07/13 02:20:12;;;;;;;14.98;12.68;;;;;;;23.76;62.44;100363.19;1852830;77;22614;-58
2021/07/13 02:23:05;;;;;;;18.15;13.65;;;;;;;23.74;62.46;100368.30;1824503;77;22621;-58
2021/07/13 02:25:40;;;;;;;15.13;13.45;;;;;;;23.78;62.33;100360.88;1809006;77;22162;-60
2021/07/13 02:28:41;;;;;;;15.50;13.72;;;;;;;23.91;62.09;100361.77;1818147;77;22210;-60
2021/07/13 02:31:31;;;;;;;15.15;13.55;;;;;;;23.77;62.51;100360.03;1811486;77;22170;-59
2021/07/13 02:34:13;;;;;;;15.45;13.43;;;;;;;23.88;62.30;100365.51;1804715;77;22583;-57
2021/07/13 02:37:06;;;;;;;14.87;13.48;;;;;;;23.79;62.68;100365.28;1834480;77;22136;-58
2021/07/13 02:39:58;;;;;;;15.20;13.58;;;;;;;23.79;62.77;100366.63;1826569;77;22674;-59
2021/07/13 02:42:31;;;;;;;16.23;14.30;;;;;;;23.76;62.90;100367.71;1827465;77;22143;-59
2021/07/13 02:45:07;;;;;;;17.32;13.78;;;;;;;23.85;62.66;100368.91;1810719;77;22170;-60
2021/07/13 02:47:59;;;;;;;17.73;13.90;;;;;;;23.84;62.67;100379.27;1842884;77;22217;-60
2021/07/13 02:50:32;;;;;;;14.83;13.28;;;;;;;23.84;62.84;100371.21;1833822;77;22160;-58
2021/07/13 02:53:07;;;;;;;15.72;13.68;;;;;;;23.87;62.96;100375.87;1842337;77;22652;-58
2021/07/13 02:55:40;;;;;;;16.87;14.68;;;;;;;23.89;63.02;100375.30;1826713;77;22155;-58
2021/07/13 02:58:14;;;;;;;16.93;13.88;;;;;;;23.88;63.13;100378.95;1828325;77;22213;-59
2021/07/13 03:00:47;;;;;;;15.75;14.05;;;;;;;23.94;63.01;100384.41;1829840;77;22567;-59
2021/07/13 03:03:21;;;;;;;15.00;13.50;;;;;;;23.96;63.07;100379.78;1820079;77;22201;-59
2021/07/13 03:06:15;;;;;;;14.68;13.35;;;;;;;23.97;63.02;100368.06;1837578;77;22219;-58
2021/07/13 03:09:08;;;;;;;15.05;13.53;;;;;;;23.95;63.12;100362.41;1809988;77;22173;-60
2021/07/13 03:12:00;;;;;;;15.88;14.25;;;;;;;23.78;63.72;100367.13;1834489;77;22136;-57
2021/07/13 03:14:53;;;;;;;15.65;14.05;;;;;;;23.96;63.33;100374.88;1807692;77;22582;-59
2021/07/13 03:17:26;;;;;;;17.65;13.28;;;;;;;23.99;63.19;100370.20;1828819;77;22582;-58
2021/07/13 03:20:20;;;;;;;14.63;13.20;;;;;;;24.00;63.12;100362.98;1819862;77;22136;-58
2021/07/13 03:22:53;;;;;;;17.55;14.68;;;;;;;24.03;63.12;100370.38;1826262;77;22206;-59
2021/07/13 03:25:46;;;;;;;16.25;14.30;;;;;;;24.04;63.01;100369.88;1822587;77;22601;-58
2021/07/13 03:28:19;;;;;;;16.12;14.43;;;;;;;24.04;63.11;100372.09;1838226;77;22177;-58
2021/07/13 03:30:53;;;;;;;17.17;14.53;;;;;;;24.01;63.21;100373.64;1834494;77;22160;-60
2021/07/13 03:33:26;;;;;;;22.37;14.75;;;;;;;24.01;62.98;100374.11;1815650;77;22201;-58
2021/07/13 03:35:59;;;;;;;21.07;14.43;;;;;;;24.08;62.86;100378.57;1852751;77;22179;-59
2021/07/13 03:38:33;;;;;;;16.80;14.73;;;;;;;24.13;62.75;100373.73;1818048;77;22214;-58
2021/07/13 03:41:06;;;;;;;18.15;14.18;;;;;;;24.19;62.58;100375.53;1832328;77;22111;-60
2021/07/13 03:43:39;;;;;;;16.15;14.18;;;;;;;24.26;62.44;100375.95;1830718;77;22209;-59
2021/07/13 03:46:35;;;;;;;15.88;14.40;;;;;;;24.31;62.33;100368.89;1833633;77;22160;-58
2021/07/13 03:49:09;;;;;;;17.00;15.32;;;;;;;24.37;62.29;100377.03;1809973;77;22195;-58
2021/07/13 03:51:46;;;;;;;16.82;15.03;;;;;;;24.40;62.31;100377.67;1846454;77;22170;-58
2021/07/13 03:54:20;;;;;;;16.02;14.58;;;;;;;24.45;62.27;100383.59;1825175;77;22756;-58
2021/07/13 03:56:59;;;;;;;16.50;14.80;;;;;;;24.45;62.47;100388.96;1833647;77;22143;-58
2021/07/13 03:59:51;;;;;;;18.15;16.17;;;;;;;24.50;62.50;100384.62;1833725;77;22636;-60
2021/07/13 04:02:24;;;;;;;16.95;15.20;;;;;;;24.57;62.49;100376.96;1825247;77;22119;-58
2021/07/13 04:04:57;;;;;;;17.80;16.07;;;;;;;24.63;62.54;100380.56;1823410;77;22593;-58
2021/07/13 04:07:31;;;;;;;17.73;15.78;;;;;;;24.72;62.42;100383.10;1830995;77;22638;-58
2021/07/13 04:10:07;;;;;;;16.70;15.15;;;;;;;24.80;62.57;100379.37;1852067;77;22183;-58
2021/07/13 04:12:59;;;;;;;18.10;16.32;;;;;;;24.87;62.55;100386.52;1824837;77;22166;-58
2021/07/13 04:15:32;;;;;;;17.45;15.75;;;;;;;24.94;62.55;100383.75;1834467;77;22180;-58
2021/07/13 04:18:07;;;;;;;17.77;15.93;;;;;;;25.01;62.47;100385.03;1824151;77;22206;-60
2021/07/13 04:21:00;;;;;;;18.73;16.82;;;;;;;25.08;62.34;100382.73;1826872;77;22135;-61
2021/07/13 04:23:34;;;;;;;18.32;16.52;;;;;;;25.17;62.38;100388.80;1817487;77;22189;-58
2021/07/13 04:26:26;;;;;;;18.90;16.97;;;;;;;25.31;62.01;100393.16;1852919;77;22131;-61
2021/07/13 04:28:59;;;;;;;17.75;16.15;;;;;;;25.42;62.12;100387.45;1812102;77;22202;-58
2021/07/13 04:31:51;;;;;;;18.20;16.45;;;;;;;25.52;61.87;100386.67;1832937;77;22168;-61
2021/07/13 04:34:24;;;;;;;18.23;16.23;;;;;;;25.64;61.89;100386.23;1821515;77;22178;-58
2021/07/13 04:36:57;;;;;;;19.48;17.48;;;;;;;25.71;61.54;100383.95;1834479;77;22179;-61
2021/07/13 04:39:30;;;;;;;18.82;16.90;;;;;;;25.79;61.35;100381.53;1805008;77;22166;-58
2021/07/13 04:42:22;;;;;;;18.12;16.35;;;;;;;25.88;61.13;100379.08;1828364;77;22579;-61
2021/07/13 04:44:56;;;;;;;18.65;16.97;;;;;;;25.93;60.92;100372.37;1834442;77;22179;-61
2021/07/13 04:47:29;;;;;;;19.73;17.70;;;;;;;26.07;60.68;100381.20;1832286;77;22180;-58
2021/07/13 04:50:04;;;;;;;20.45;17.20;;;;;;;26.17;60.43;100382.75;1834488;77;22187;-58
2021/07/13 04:52:38;;;;;;;21.62;19.35;;;;;;;26.27;60.25;100385.94;1774562;77;28156;-58
2021/07/13 04:55:30;;;;;;;20.95;18.25;;;;;;;26.39;59.90;100381.41;1790223;77;22643;-58
2021/07/13 04:58:03;;;;;;;19.35;17.60;;;;;;;26.48;59.59;100393.81;1824527;77;22218;-60
2021/07/13 05:00:55;;;;;;;19.35;17.45;;;;;;;26.55;59.25;100397.73;1834389;77;22195;-60
2021/07/13 05:03:28;;;;;;;18.17;16.37;;;;;;;26.59;59.00;100411.36;1806698;77;22203;-59
2021/07/13 05:06:02;;;;;;;18.50;16.62;;;;;;;26.63;58.74;100406.09;1810191;77;22166;-58
2021/07/13 05:08:35;;;;;;;18.32;16.48;;;;;;;26.65;58.60;100408.17;1830164;78;22205;-61
2021/07/13 05:11:10;;;;;;;17.50;15.75;;;;;;;26.73;58.33;100405.70;1829469;77;22144;-60
2021/07/13 05:13:43;;;;;;;17.73;15.70;;;;;;;26.85;58.16;100403.91;1790450;77;22209;-58
2021/07/13 05:16:16;;;;;;;17.60;15.88;;;;;;;27.00;58.02;100405.84;1852799;77;22178;-60
2021/07/13 05:18:50;;;;;;;17.12;15.50;;;;;;;27.18;58.14;100408.00;1814157;77;22434;-58
2021/07/13 05:21:23;;;;;;;16.35;14.85;;;;;;;27.43;58.01;100400.59;1828956;77;22127;-61
2021/07/13 05:23:56;;;;;;;16.30;14.60;;;;;;;27.69;57.79;100402.96;1830606;77;22210;-58
2021/07/13 05:26:49;;;;;;;16.07;14.38;;;;;;;28.01;57.06;100396.67;1834443;77;22132;-60
2021/07/13 05:29:22;;;;;;;16.00;14.38;;;;;;;28.30;56.39;100401.43;1806810;77;22209;-60
2021/07/13 05:31:55;;;;;;;16.00;14.35;;;;;;;28.39;55.97;100407.88;1821321;77;22155;-58
2021/07/13 05:34:28;;;;;;;17.02;13.65;;;;;;;28.53;55.46;100406.66;1805407;77;22170;-60
2021/07/13 05:37:04;;;;;;;17.30;14.07;;;;;;;28.67;54.88;100405.46;1852825;77;22227;-60
2021/07/13 05:39:37;;;;;;;14.60;13.25;;;;;;;28.85;54.49;100409.77;1818590;77;20522;-59
2021/07/13 05:42:30;;;;;;;15.00;12.82;;;;;;;29.04;54.35;100415.73;1818017;77;22646;-59
2021/07/13 05:45:04;;;;;;;16.95;13.32;;;;;;;29.34;54.07;100415.29;1852787;77;22163;-60
2021/07/13 05:47:38;;;;;;;14.95;12.73;;;;;;;29.65;53.18;100426.03;1830368;77;22187;-61
2021/07/13 05:50:31;;;;;;;15.55;13.68;;;;;;;29.96;52.45;100422.67;1810069;77;22656;-59
2021/07/13 05:53:11;;;;;;;14.05;12.75;;;;;;;30.26;51.67;100415.88;1813523;77;22236;-60
2021/07/13 05:55:44;;;;;;;13.55;12.23;;;;;;;30.54;51.21;100411.85;1819797;77;22160;-61
2021/07/13 05:58:38;;;;;;;14.07;12.30;;;;;;;30.85;50.66;100411.62;1801336;77;22205;-60
2021/07/13 06:01:12;;;;;;;14.87;11.65;;;;;;;31.24;49.99;100406.48;1819194;77;22186;-59
2021/07/13 06:03:46;;;;;;;14.38;11.80;;;;;;;31.62;49.13;100407.71;1816889;77;22166;-59
2021/07/13 06:06:19;;;;;;;12.93;11.12;;;;;;;31.91;48.29;100406.13;1815845;77;22206;-58
2021/07/13 06:09:11;;;;;;;15.75;11.22;;;;;;;32.26;47.21;100402.09;1806400;77;22664;-59
2021/07/13 06:11:44;;;;;;;11.48;10.48;;;;;;;32.51;46.32;100402.28;1824974;77;22818;-61
2021/07/13 06:14:17;;;;;;;12.25;11.05;;;;;;;32.69;45.56;100406.28;1807738;77;22191;-61
2021/07/13 06:16:51;;;;;;;13.40;11.30;;;;;;;32.87;45.17;100408.94;1852581;77;22187;-62
2021/07/13 06:19:24;;;;;;;11.83;10.65;;;;;;;33.04;44.44;100407.13;1816612;77;22190;-61
2021/07/13 06:22:16;;;;;;;13.15;11.15;;;;;;;33.13;43.63;100403.91;1834568;77;22156;-59
2021/07/13 06:24:49;;;;;;;12.63;11.28;;;;;;;33.19;43.30;100400.02;1834494;77;22168;-61
2021/07/13 06:27:22;;;;;;;11.63;10.43;;;;;;;33.33;42.98;100401.77;1830116;77;22119;-61
2021/07/13 06:29:56;;;;;;;12.53;11.38;;;;;;;33.46;42.82;100397.20;1834494;77;22179;-61
2021/07/13 06:32:29;;;;;;;12.88;11.57;;;;;;;33.53;42.60;100400.09;1831646;77;22124;-59
2021/07/13 06:35:22;;;;;;;12.53;11.10;;;;;;;33.64;42.46;100395.68;1834463;77;22568;-61
2021/07/13 06:37:57;;;;;;;12.20;10.80;;;;;;;33.71;42.05;100398.07;1831246;77;22209;-59
2021/07/13 06:40:30;;;;;;;12.37;10.80;;;;;;;33.84;41.97;100387.13;1848103;77;22617;-58
2021/07/13 06:43:22;;;;;;;13.08;11.70;;;;;;;34.01;41.71;100389.36;1820263;77;22230;-61
2021/07/13 06:45:55;;;;;;;13.53;11.25;;;;;;;34.21;41.15;100391.23;1846602;77;22161;-61
2021/07/13 06:48:48;;;;;;;13.40;11.50;;;;;;;34.38;40.78;100401.60;1832544;77;22597;-62
2021/07/13 06:51:21;;;;;;;13.88;12.47;;;;;;;34.56;40.48;100405.50;1843712;77;22610;-58
2021/07/13 06:53:57;;;;;;;15.68;14.18;;;;;;;34.74;40.14;100408.49;1796192;77;22215;-62
2021/07/13 06:56:31;;;;;;;14.40;13.00;;;;;;;34.93;39.94;100396.27;1822866;77;22127;-58
2021/07/13 06:59:23;;;;;;;13.50;12.35;;;;;;;35.06;39.67;100408.89;1806457;77;22245;-61
2021/07/13 07:01:56;;;;;;;15.40;12.20;;;;;;;35.16;39.55;100405.08;1831407;77;22162;-62
2021/07/13 07:04:29;;;;;;;13.30;12.00;;;;;;;35.16;39.38;100403.72;1793728;77;22181;-58
2021/07/13 07:07:03;;;;;;;14.60;12.40;;;;;;;35.25;39.31;100406.73;1832549;77;22599;-62
2021/07/13 07:09:37;;;;;;;14.70;12.47;;;;;;;35.39;39.16;100400.47;1821175;77;22201;-62
2021/07/13 07:12:29;;;;;;;12.55;11.33;;;;;;;35.68;38.89;100400.80;1827180;77;22175;-58
2021/07/13 07:15:03;;;;;;;13.03;11.78;;;;;;;35.90;38.44;100407.28;1819494;77;22581;-58
2021/07/13 07:17:51;;;;;;;12.20;10.93;;;;;;;36.16;38.07;100409.63;1849009;77;22155;-59
2021/07/13 07:20:28;;;;;;;12.78;11.33;;;;;;;36.35;37.80;100409.27;1827143;77;22144;-58
2021/07/13 07:23:02;;;;;;;13.65;12.40;;;;;;;36.54;37.26;100406.00;1834856;77;22653;-58
2021/07/13 07:25:35;;;;;;;12.37;11.18;;;;;;;36.67;37.18;100409.94;1834376;77;22187;-63
2021/07/13 07:28:28;;;;;;;11.65;10.55;;;;;;;36.85;36.94;100408.20;1812462;77;22240;-59
2021/07/13 07:31:01;;;;;;;12.63;11.20;;;;;;;37.07;36.66;100405.52;1813093;77;22578;-63
2021/07/13 07:33:34;;;;;;;10.98;9.83;;;;;;;37.29;36.29;100401.78;1817709;77;22610;-63
2021/07/13 07:36:08;;;;;;;11.85;10.15;;;;;;;37.46;36.04;100398.28;1820046;77;22151;-58
2021/07/13 07:39:00;;;;;;;10.88;9.88;;;;;;;37.71;35.70;100388.25;1807196;77;22222;-59
2021/07/13 07:41:33;;;;;;;10.80;9.73;;;;;;;37.92;35.14;100383.82;1831358;77;22193;-59
2021/07/13 07:44:25;;;;;;;11.75;9.10;;;;;;;38.26;34.88;100382.14;1806050;77;22182;-59
2021/07/13 07:46:58;;;;;;;9.20;8.10;;;;;;;38.46;34.38;100380.91;1830981;77;22159;-63
2021/07/13 07:49:35;;;;;;;11.90;8.15;;;;;;;38.52;33.60;100381.48;1794693;77;22236;-59
2021/07/13 07:52:09;;;;;;;9.85;8.73;;;;;;;38.56;33.63;100383.82;1833672;77;22163;-62
2021/07/13 07:54:42;;;;;;;9.73;8.23;;;;;;;38.74;33.17;100387.39;1820007;77;22220;-63
2021/07/13 07:57:35;;;;;;;12.00;7.97;;;;;;;38.94;32.93;100388.88;1836668;77;22159;-59
2021/07/13 08:00:11;;;;;;;11.57;7.90;;;;;;;38.85;32.68;100396.44;1805235;77;22135;-59
2021/07/13 08:03:03;;;;;;;9.33;8.30;;;;;;;38.72;32.61;100397.20;1824706;77;22210;-63
2021/07/13 08:05:37;;;;;;;9.28;8.35;;;;;;;38.74;32.07;100400.59;1828408;77;22159;-59
2021/07/13 08:08:10;;;;;;;8.55;7.75;;;;;;;38.30;31.90;100400.44;1825735;77;22178;-59
2021/07/13 08:10:44;;;;;;;12.80;8.00;;;;;;;37.98;32.56;100402.22;1852435;77;22175;-59
2021/07/13 08:13:36;;;;;;;8.20;7.37;;;;;;;37.78;32.70;100397.91;1835187;77;22221;-59
2021/07/13 08:16:09;;;;;;;13.28;8.40;;;;;;;37.62;32.86;100400.42;1832572;77;22190;-62
2021/07/13 08:18:42;;;;;;;9.58;8.13;;;;;;;37.45;33.08;100397.09;1833818;77;22201;-63
2021/07/13 08:21:19;;;;;;;8.25;7.47;;;;;;;37.41;33.08;100402.11;1852759;77;22582;-63
2021/07/13 08:23:51;;;;;;;9.08;7.40;;;;;;;37.24;33.42;100402.02;1813244;77;22225;-63
2021/07/13 08:26:24;;;;;;;9.30;8.43;;;;;;;37.13;33.60;100402.02;1832947;77;22184;-59
2021/07/13 08:29:16;;;;;;;12.13;8.40;;;;;;;37.04;33.94;100408.98;1808202;77;22174;-63
2021/07/13 08:31:55;;;;;;;8.78;7.97;;;;;;;37.05;34.18;100415.33;1852752;77;22174;-59
2021/07/13 08:34:43;;;;;;;8.65;7.05;;;;;;;37.09;34.38;100414.41;1819819;77;22613;-63
2021/07/13 08:37:20;;;;;;;8.43;7.62;;;;;;;37.18;34.29;100407.23;1820167;77;22171;-63
2021/07/13 08:39:51;;;;;;;8.43;7.33;;;;;;;37.31;34.16;100404.31;1834145;77;22213;-63
2021/07/13 08:50:57;;;;;;;8.30;7.12;;;;;;;38.36;32.43;100411.49;1834379;77;22160;-64
2021/07/13 08:53:30;;;;;;;8.75;6.92;;;;;;;38.61;32.45;100414.30;1818554;77;22206;-59
2021/07/13 08:56:23;;;;;;;8.60;6.67;;;;;;;38.66;32.71;100416.75;1820128;77;22209;-64
2021/07/13 08:58:56;;;;;;;8.68;7.33;;;;;;;39.02;32.15;100409.84;1812600;77;22234;-64
2021/07/13 09:01:48;;;;;;;7.37;6.67;;;;;;;39.44;31.69;100400.97;1834328;77;22548;-58
2021/07/13 09:04:34;;;;;;;8.05;7.25;;;;;;;39.87;31.40;100408.02;1806958;77;22206;-59
2021/07/13 09:07:09;;;;;;;7.80;7.00;;;;;;;40.28;30.87;100402.80;1834481;77;22164;-64
2021/07/13 09:09:47;;;;;;;7.53;6.80;;;;;;;40.51;30.52;100400.63;1819904;77;22245;-64
2021/07/13 09:12:36;;;;;;;11.28;7.33;;;;;;;40.76;30.07;100404.05;1830661;77;22576;-64
2021/07/13 09:15:13;;;;;;;7.92;7.12;;;;;;;40.92;29.95;100409.59;1827236;77;22676;-64
2021/07/13 09:17:49;;;;;;;6.95;6.20;;;;;;;40.95;29.00;100408.64;1846898;77;22201;-58
2021/07/13 09:20:29;;;;;;;7.58;6.80;;;;;;;40.86;28.84;100415.47;1818858;77;28454;-58
2021/07/13 09:23:21;;;;;;;8.28;6.65;;;;;;;40.73;28.58;100411.70;1820573;77;22225;-58
2021/07/13 09:25:54;;;;;;;6.80;6.20;;;;;;;40.55;28.16;100417.88;1820362;77;22351;-58
2021/07/13 09:28:46;;;;;;;7.40;6.70;;;;;;;40.24;28.37;100425.48;1832921;77;22625;-61
2021/07/13 09:31:20;;;;;;;7.72;6.95;;;;;;;39.96;28.82;100419.12;1834386;77;22120;-64
2021/07/13 09:34:18;;;;;;;8.35;7.03;;;;;;;39.71;29.07;100423.04;1808603;77;22768;-65
2021/07/13 09:36:53;;;;;;;7.72;6.80;;;;;;;39.43;29.43;100417.16;1834410;77;22128;-58
2021/07/13 09:39:26;;;;;;;9.80;6.65;;;;;;;39.17;29.81;100419.30;1805936;77;22171;-64
2021/07/13 09:41:59;;;;;;;7.45;6.70;;;;;;;38.91;30.25;100410.74;1852744;77;22618;-64
2021/07/13 09:44:33;;;;;;;7.55;6.17;;;;;;;38.68;30.66;100409.15;1803740;77;22681;-58
2021/07/13 09:47:31;;;;;;;10.05;6.75;;;;;;;38.38;31.28;100403.89;1851415;77;22167;-58
2021/07/13 09:50:07;;;;;;;7.75;6.78;;;;;;;38.32;31.11;100405.20;1852806;77;22131;-58
2021/07/13 09:53:01;;;;;;;7.75;6.95;;;;;;;38.49;31.99;100402.50;1842633;77;22229;-59
2021/07/13 09:55:34;;;;;;;7.67;6.83;;;;;;;38.87;32.20;100405.88;1834416;77;22634;-58
2021/07/13 09:58:27;;;;;;;8.20;7.33;;;;;;;39.47;31.72;100400.55;1828024;77;22662;-64
2021/07/13 10:01:00;;;;;;;7.08;6.35;;;;;;;39.91;31.08;100401.55;1834268;77;22208;-64
2021/07/13 10:03:34;;;;;;;8.20;6.58;;;;;;;40.50;30.54;100405.27;1803666;77;22247;-65
2021/07/13 10:06:08;;;;;;;8.80;6.85;;;;;;;41.01;29.90;100402.25;1834401;77;22156;-65
2021/07/13 10:08:41;;;;;;;8.23;7.05;;;;;;;41.40;29.04;100406.92;1815402;77;22197;-65
2021/07/13 10:11:33;;;;;;;7.42;6.72;;;;;;;41.79;28.95;100404.08;1829584;77;22163;-58
2021/07/13 10:14:12;;;;;;;9.30;6.53;;;;;;;42.31;28.66;100405.22;1810314;77;22657;-58
2021/07/13 10:16:45;;;;;;;9.03;6.53;;;;;;;42.85;28.00;100404.09;1820525;77;22315;-59
2021/07/13 10:19:45;;;;;;;6.70;6.08;;;;;;;43.35;27.27;100412.66;1810528;77;22340;-58
2021/07/13 10:22:22;;;;;;;7.58;6.60;;;;;;;43.59;25.06;100409.10;1818212;77;22087;-58
2021/07/13 10:24:57;;;;;;;7.83;6.17;;;;;;;43.33;26.27;100414.82;1822474;77;22262;-65
2021/07/13 10:27:42;;;;;;;8.40;6.80;;;;;;;43.47;26.33;100414.09;1803110;77;27970;-59
2021/07/13 10:30:21;;;;;;;7.05;6.42;;;;;;;43.77;26.27;100406.28;1810977;77;22138;-65
2021/07/13 10:32:54;;;;;;;7.50;6.53;;;;;;;44.09;25.72;100407.89;1826246;77;22340;-65
2021/07/13 10:35:47;;;;;;;8.10;6.03;;;;;;;44.39;25.10;100409.65;1820264;77;22288;-59
2021/07/13 10:38:23;;;;;;;6.97;6.25;;;;;;;44.61;24.93;100411.79;1814342;77;22807;-59
2021/07/13 10:41:19;;;;;;;9.03;6.55;;;;;;;44.80;24.73;100403.59;1817188;77;22490;-66
2021/07/13 10:43:52;;;;;;;6.87;6.22;;;;;;;44.90;24.64;100400.77;1799855;77;22335;-65
2021/07/13 10:46:25;;;;;;;6.80;6.08;;;;;;;44.90;24.70;100405.75;1817888;77;22288;-65
2021/07/13 10:49:19;;;;;;;10.00;6.30;;;;;;;44.93;24.60;100406.64;1816969;77;22552;-65
2021/07/13 10:52:40;;;;;;;9.55;6.40;;;;;;;44.98;24.28;100410.91;1812782;77;22597;-65
2021/07/13 10:55:37;;;;;;;7.47;6.15;;;;;;;45.06;24.25;100404.67;1818422;77;22139;-65
2021/07/13 10:58:16;;;;;;;6.97;5.70;;;;;;;45.00;24.28;100404.57;1807755;77;22131;-59
2021/07/13 11:00:58;;;;;;;6.15;5.45;;;;;;;45.17;23.77;100403.77;1808562;77;22264;-65
2021/07/13 11:03:39;;;;;;;8.48;5.78;;;;;;;45.30;23.90;100404.03;1811836;77;22311;-65
2021/07/13 11:06:17;;;;;;;6.15;5.45;;;;;;;45.30;23.79;100404.03;1834449;77;22568;-65
2021/07/13 11:08:51;;;;;;;7.75;5.12;;;;;;;45.19;23.80;100407.14;1807548;77;22312;-59
2021/07/13 11:11:43;;;;;;;6.37;5.78;;;;;;;44.98;23.72;100406.75;1818768;77;22266;-59
2021/07/13 11:14:17;;;;;;;7.08;6.05;;;;;;;44.75;23.91;100397.11;1807961;77;22741;-59
2021/07/13 11:17:09;;;;;;;6.28;5.55;;;;;;;44.48;23.74;100401.81;1817821;77;22709;-65
2021/07/13 11:19:42;;;;;;;9.03;6.35;;;;;;;44.24;23.61;100396.30;1819913;77;22343;-64
2021/07/13 11:22:17;;;;;;;13.13;6.08;;;;;;;43.94;23.62;100399.47;1834376;77;22144;-65
2021/07/13 11:24:50;;;;;;;7.17;6.00;;;;;;;43.61;24.07;100399.48;1852705;77;22135;-64
2021/07/13 11:27:24;;;;;;;6.75;5.55;;;;;;;43.42;24.67;100398.73;1831573;77;22124;-59
2021/07/13 11:29:57;;;;;;;7.22;5.47;;;;;;;43.35;24.96;100398.81;1828206;77;22132;-64
2021/07/13 11:32:30;;;;;;;8.05;6.00;;;;;;;43.32;24.85;100397.08;1823083;77;22151;-65
2021/07/13 11:35:23;;;;;;;6.72;5.95;;;;;;;43.19;24.70;100388.41;1830965;77;22247;-65
2021/07/13 11:37:57;;;;;;;8.95;6.22;;;;;;;42.99;24.96;100389.53;1819466;77;22181;-65
2021/07/13 11:40:31;;;;;;;7.87;5.80;;;;;;;42.73;25.30;100386.02;1852833;77;22749;-59
2021/07/13 11:43:26;;;;;;;7.35;6.30;;;;;;;42.51;25.84;100387.05;1826555;77;22707;-59
2021/07/13 11:46:18;;;;;;;7.00;6.20;;;;;;;42.40;26.44;100391.41;1806799;77;20261;-59
2021/07/13 11:49:10;;;;;;;9.30;6.58;;;;;;;42.50;26.72;100397.80;1805165;77;22886;-59
2021/07/13 11:51:56;;;;;;;7.62;6.35;;;;;;;42.72;26.35;100389.87;1808632;77;22276;-59
2021/07/13 11:54:33;;;;;;;6.85;6.12;;;;;;;42.97;26.45;100395.84;1794917;77;22168;-64
2021/07/13 11:57:26;;;;;;;7.85;6.08;;;;;;;43.18;26.34;100388.93;1821832;77;22112;-59
2021/07/13 11:59:59;;;;;;;7.83;5.97;;;;;;;43.37;26.19;100391.12;1833482;77;22156;-65
2021/07/13 12:02:32;;;;;;;7.03;5.60;;;;;;;43.50;25.79;100390.05;1830283;77;22675;-65
2021/07/13 12:05:24;;;;;;;6.22;5.62;;;;;;;43.56;25.20;100391.56;1833429;77;22084;-59
2021/07/13 12:07:58;;;;;;;9.28;5.35;;;;;;;43.52;25.27;100382.91;1825867;77;22332;-66
2021/07/13 12:10:31;;;;;;;7.20;5.42;;;;;;;43.60;24.49;100390.02;1841411;77;22247;-59
2021/07/13 12:13:04;;;;;;;5.37;4.87;;;;;;;43.74;24.34;100386.50;1821656;77;22768;-59
2021/07/13 12:15:37;;;;;;;7.67;5.50;;;;;;;43.87;24.40;100389.05;1834176;77;22089;-65
2021/07/13 12:18:30;;;;;;;9.73;5.67;;;;;;;43.91;24.45;100390.25;1813038;77;22300;-59
2021/07/13 12:21:03;;;;;;;7.80;5.53;;;;;;;43.84;24.45;100388.14;1833574;77;22267;-58
2021/07/13 12:23:37;;;;;;;6.35;5.22;;;;;;;43.75;24.36;100385.41;1826577;77;22496;-58